Terminal Aerodrome Forecast
Issued by NWS

Home | Current Version | Previous Version | Text Only | Print | Product List | Glossary On
Versions: 1 2 3 4 5 6 7 8 9 10 11 12
874
FTUS42 KGSP 230534
TAFGMU
TAF
KGMU 230534Z 2306/2406 24005KT P6SM SKC
     FM231400 24006KT P6SM SCT050
     FM231700 26007KT P6SM BKN050 PROB30 2317/2323 4SM -TSRA
      OVC035CB
     FM232300 33004KT P6SM BKN050 PROB30 2323/2403 4SM -TSRA
      OVC035CB=

USA.gov is the U.S. government's official web portal to all federal, state and local government web resources and services.